createdAt,value
2018-08-17T00:02:20.050Z,17.90
2018-08-17T00:04:49.081Z,17.90
2018-08-17T00:07:17.711Z,17.90
2018-08-17T00:09:46.250Z,17.80
2018-08-17T00:12:14.754Z,17.70
2018-08-17T00:14:44.161Z,17.70
2018-08-17T00:17:12.784Z,17.60
2018-08-17T00:19:41.191Z,17.60
2018-08-17T00:22:09.621Z,17.50
2018-08-17T00:24:38.021Z,17.50
2018-08-17T00:27:06.686Z,17.50
2018-08-17T00:29:36.669Z,17.40
2018-08-17T00:32:05.238Z,17.60
2018-08-17T00:34:35.322Z,17.60
2018-08-17T00:37:06.184Z,17.60
2018-08-17T00:39:34.973Z,17.60
2018-08-17T00:42:06.780Z,17.60
2018-08-17T00:44:36.328Z,17.50
2018-08-17T00:47:09.163Z,17.40
2018-08-17T00:49:38.625Z,17.40
2018-08-17T00:52:07.635Z,17.30
2018-08-17T00:54:36.533Z,17.30
2018-08-17T00:57:05.001Z,17.20
2018-08-17T00:59:33.495Z,17.20
2018-08-17T01:02:03.352Z,17.10
2018-08-17T01:04:35.058Z,17.10
2018-08-17T01:07:03.590Z,17.10
2018-08-17T01:09:32.045Z,17.10
2018-08-17T01:12:00.616Z,17.00
2018-08-17T01:14:29.055Z,17.00
2018-08-17T01:16:57.500Z,17.00
2018-08-17T01:19:25.970Z,17.10
2018-08-17T01:21:54.357Z,17.10
2018-08-17T01:24:22.955Z,17.10
2018-08-17T01:26:51.377Z,17.00
2018-08-17T01:29:19.959Z,17.10
2018-08-17T01:31:48.398Z,17.00
2018-08-17T01:34:16.843Z,17.00
2018-08-17T01:36:45.210Z,16.90
2018-08-17T01:39:13.663Z,16.90
2018-08-17T01:41:42.061Z,16.90
2018-08-17T01:44:10.472Z,16.90
2018-08-17T01:46:38.881Z,16.80
2018-08-17T01:49:07.319Z,16.80
2018-08-17T01:51:35.748Z,16.80
2018-08-17T01:54:07.131Z,16.70
2018-08-17T01:56:35.713Z,16.70
2018-08-17T01:59:04.174Z,16.80
2018-08-17T02:01:32.657Z,16.70
2018-08-17T02:04:01.071Z,16.70
2018-08-17T02:06:29.511Z,16.70
2018-08-17T02:08:57.895Z,16.70
2018-08-17T02:11:26.445Z,16.70
2018-08-17T02:13:54.857Z,16.70
2018-08-17T02:16:23.270Z,16.70
2018-08-17T02:18:51.641Z,16.70
2018-08-17T02:21:20.043Z,16.70
2018-08-17T02:23:48.416Z,16.60
2018-08-17T02:26:16.815Z,16.60
2018-08-17T02:28:45.197Z,16.60
2018-08-17T02:31:13.634Z,16.50
2018-08-17T02:33:42.212Z,16.50
2018-08-17T02:36:10.629Z,16.40
2018-08-17T02:38:39.110Z,16.40
2018-08-17T02:41:07.558Z,16.40
2018-08-17T02:43:35.944Z,16.40
2018-08-17T02:46:04.406Z,16.40
2018-08-17T02:48:32.848Z,16.30
2018-08-17T02:51:01.229Z,16.20
2018-08-17T02:53:29.762Z,16.10
2018-08-17T02:55:58.184Z,16.10
2018-08-17T02:58:26.565Z,16.00
2018-08-17T03:00:54.956Z,16.10
2018-08-17T03:03:23.395Z,16.00
2018-08-17T03:05:51.762Z,15.90
2018-08-17T03:08:20.267Z,15.90
2018-08-17T03:10:48.804Z,15.90
2018-08-17T03:13:17.307Z,15.90
2018-08-17T03:15:46.482Z,15.80
2018-08-17T03:18:14.903Z,15.80
2018-08-17T03:20:43.319Z,15.80
2018-08-17T03:23:11.778Z,15.80
2018-08-17T03:25:40.273Z,15.80
2018-08-17T03:28:08.669Z,15.80
2018-08-17T03:30:37.139Z,15.80
2018-08-17T03:33:05.556Z,15.80
2018-08-17T03:35:34.052Z,15.70
2018-08-17T03:38:02.540Z,15.90
2018-08-17T03:40:30.971Z,15.80
2018-08-17T03:42:59.334Z,15.60
2018-08-17T03:45:27.756Z,15.60
2018-08-17T03:47:56.238Z,15.60
2018-08-17T03:50:24.745Z,15.60
2018-08-17T03:52:53.189Z,15.70
2018-08-17T03:55:21.597Z,15.70
2018-08-17T03:57:49.986Z,15.70
2018-08-17T04:00:18.460Z,15.60
2018-08-17T04:02:46.844Z,15.60
2018-08-17T04:05:15.311Z,15.70
2018-08-17T04:07:43.738Z,15.80
2018-08-17T04:10:12.222Z,15.70
2018-08-17T04:12:40.676Z,15.80
2018-08-17T04:15:09.728Z,15.70
2018-08-17T04:17:38.522Z,15.80
2018-08-17T04:20:07.274Z,15.80
2018-08-17T04:22:35.676Z,15.80
2018-08-17T04:25:04.221Z,15.90
2018-08-17T04:27:32.644Z,15.90
2018-08-17T04:30:01.163Z,15.90
2018-08-17T04:32:29.724Z,15.90
2018-08-17T04:34:58.288Z,15.90
2018-08-17T04:37:26.824Z,15.90
2018-08-17T04:39:55.210Z,15.90
2018-08-17T04:42:23.641Z,15.90
2018-08-17T04:44:52.192Z,16.00
2018-08-17T04:47:20.700Z,16.20
2018-08-17T04:49:49.059Z,16.20
2018-08-17T04:52:17.567Z,16.30
2018-08-17T04:54:45.960Z,16.20
2018-08-17T04:57:14.391Z,16.30
2018-08-17T04:59:42.796Z,16.30
2018-08-17T05:02:11.282Z,16.40
2018-08-17T05:04:39.690Z,16.50
2018-08-17T05:07:08.815Z,16.60
2018-08-17T05:09:37.192Z,16.60
2018-08-17T05:12:05.819Z,16.60
2018-08-17T05:14:34.257Z,16.70
2018-08-17T05:17:02.657Z,16.80
2018-08-17T05:19:31.037Z,17.00
2018-08-17T05:21:59.531Z,17.20
2018-08-17T05:24:27.954Z,17.40
2018-08-17T05:26:56.327Z,17.60
2018-08-17T05:29:24.836Z,17.70
2018-08-17T05:31:53.336Z,18.00
2018-08-17T05:34:21.770Z,18.10
2018-08-17T05:36:50.124Z,18.20
2018-08-17T05:39:18.581Z,18.50
2018-08-17T05:41:47.163Z,18.70
2018-08-17T05:44:15.641Z,18.90
2018-08-17T05:46:44.127Z,19.00
2018-08-17T05:49:12.591Z,18.90
2018-08-17T05:51:41.189Z,19.00
2018-08-17T05:54:09.785Z,19.30
2018-08-17T05:56:38.229Z,19.30
2018-08-17T05:59:06.624Z,19.80
2018-08-17T06:01:35.115Z,20.40
2018-08-17T06:04:03.549Z,20.80
2018-08-17T06:06:32.054Z,21.50
2018-08-17T06:09:00.565Z,22.00
2018-08-17T06:11:36.033Z,22.30
2018-08-17T06:14:04.765Z,23.30
2018-08-17T06:16:33.304Z,23.90
2018-08-17T06:19:01.821Z,23.60
2018-08-17T06:21:30.390Z,23.10
2018-08-17T06:26:35.631Z,23.40
2018-08-17T06:29:04.071Z,23.50
2018-08-17T06:31:32.570Z,23.50
2018-08-17T06:34:01.042Z,23.80
2018-08-17T06:36:29.465Z,24.10
2018-08-17T06:38:58.053Z,24.10
2018-08-17T06:41:27.637Z,24.40
2018-08-17T06:43:56.077Z,24.80
2018-08-17T06:46:24.570Z,25.40
2018-08-17T06:48:53.064Z,25.80
2018-08-17T06:51:21.652Z,25.50
2018-08-17T06:53:50.137Z,25.80
2018-08-17T06:56:18.616Z,26.00
2018-08-17T06:58:47.119Z,26.50
2018-08-17T07:01:15.671Z,26.60
2018-08-17T07:03:44.057Z,26.60
2018-08-17T07:06:12.479Z,26.40
2018-08-17T07:08:40.961Z,26.60
2018-08-17T07:11:09.341Z,26.90
2018-08-17T07:13:37.738Z,27.20
2018-08-17T07:16:06.377Z,28.40
2018-08-17T07:18:34.761Z,28.60
2018-08-17T07:21:03.342Z,27.90
2018-08-17T07:23:31.930Z,27.70
2018-08-17T07:26:00.310Z,28.10
2018-08-17T07:28:28.755Z,29.10
2018-08-17T07:30:57.276Z,29.50
2018-08-17T07:33:25.734Z,28.80
2018-08-17T07:35:54.285Z,29.80
2018-08-17T07:38:22.622Z,29.10
2018-08-17T07:40:51.037Z,30.00
2018-08-17T07:43:19.777Z,29.90
2018-08-17T07:45:48.308Z,29.70
2018-08-17T07:48:16.981Z,30.80
2018-08-17T07:50:45.313Z,31.20
2018-08-17T07:53:13.768Z,31.30
2018-08-17T07:55:42.161Z,31.60
2018-08-17T07:58:10.618Z,30.10
2018-08-17T08:00:39.076Z,30.70
2018-08-17T08:03:07.599Z,31.10
2018-08-17T08:05:36.083Z,31.30
2018-08-17T08:08:05.389Z,31.50
2018-08-17T08:10:33.818Z,31.40
2018-08-17T08:13:02.463Z,31.30
2018-08-17T08:15:30.860Z,31.10
2018-08-17T08:17:59.318Z,31.20
2018-08-17T08:20:32.269Z,29.90
2018-08-17T08:23:11.890Z,30.40
2018-08-17T08:25:41.103Z,29.70
2018-08-17T08:28:09.614Z,28.90
2018-08-17T08:30:38.431Z,29.50
2018-08-17T08:33:07.057Z,29.70
2018-08-17T08:35:35.910Z,30.00
2018-08-17T08:38:05.023Z,30.70
2018-08-17T08:40:33.436Z,31.30
2018-08-17T08:43:02.008Z,32.00
2018-08-17T08:45:30.450Z,32.40
2018-08-17T08:47:58.969Z,33.20
2018-08-17T08:50:27.530Z,32.90
2018-08-17T08:52:55.980Z,33.30
2018-08-17T08:55:24.465Z,33.10
2018-08-17T08:57:52.942Z,32.40
2018-08-17T09:00:21.381Z,32.50
2018-08-17T09:02:49.841Z,32.40
2018-08-17T09:05:18.312Z,30.70
2018-08-17T09:07:46.908Z,31.40
2018-08-17T09:10:15.425Z,31.90
2018-08-17T09:12:43.933Z,31.70
2018-08-17T09:15:12.892Z,32.50
2018-08-17T09:17:42.495Z,32.60
2018-08-17T09:20:13.266Z,32.30
2018-08-17T09:22:41.850Z,32.70
2018-08-17T09:25:10.370Z,33.40
2018-08-17T09:27:38.894Z,32.30
2018-08-17T09:30:09.986Z,31.70
2018-08-17T09:32:38.471Z,31.60
2018-08-17T09:35:09.278Z,32.10
2018-08-17T09:37:37.749Z,33.40
2018-08-17T09:40:07.005Z,33.80
2018-08-17T09:42:35.500Z,33.10
2018-08-17T09:45:04.063Z,32.80
2018-08-17T09:47:32.493Z,30.80
2018-08-17T09:50:00.944Z,30.70
2018-08-17T09:52:29.332Z,31.70
2018-08-17T09:54:57.751Z,32.10
2018-08-17T09:57:26.299Z,32.50
2018-08-17T09:59:54.732Z,33.60
2018-08-17T10:02:28.528Z,32.30
2018-08-17T10:05:02.550Z,31.40
2018-08-17T10:07:36.664Z,31.60
2018-08-17T10:10:11.184Z,30.80
2018-08-17T10:12:39.620Z,31.50
2018-08-17T10:15:08.285Z,32.20
2018-08-17T10:17:36.781Z,32.10
2018-08-17T10:20:12.167Z,32.00
2018-08-17T10:22:40.760Z,30.90
2018-08-17T10:25:15.621Z,31.10
2018-08-17T10:27:45.420Z,31.80
2018-08-17T10:30:14.125Z,34.00
2018-08-17T10:33:01.211Z,34.50
2018-08-17T10:35:37.172Z,34.80
2018-08-17T10:38:07.644Z,35.10
2018-08-17T10:40:36.218Z,35.10
2018-08-17T10:43:05.894Z,34.10
2018-08-17T10:45:34.782Z,32.90
2018-08-17T10:48:03.715Z,32.90
2018-08-17T10:50:33.334Z,33.70
2018-08-17T10:53:02.900Z,34.50
2018-08-17T10:55:39.584Z,34.10
2018-08-17T10:58:09.286Z,32.10
2018-08-17T11:00:37.834Z,30.70
2018-08-17T11:03:06.406Z,31.50
2018-08-17T11:05:34.857Z,32.70
2018-08-17T11:08:03.374Z,32.80
2018-08-17T11:10:31.850Z,33.40
2018-08-17T11:13:00.360Z,32.90
2018-08-17T11:15:28.751Z,32.20
2018-08-17T11:17:57.232Z,31.80
2018-08-17T11:20:25.673Z,32.90
2018-08-17T11:22:54.280Z,33.90
2018-08-17T11:25:22.767Z,33.50
2018-08-17T11:27:51.865Z,34.70
2018-08-17T11:30:20.374Z,36.20
2018-08-17T11:32:48.818Z,37.30
2018-08-17T11:35:17.313Z,37.30
2018-08-17T11:37:45.897Z,37.60
2018-08-17T11:40:14.326Z,36.90
2018-08-17T11:42:45.018Z,36.60
2018-08-17T11:45:20.686Z,34.20
2018-08-17T11:47:49.420Z,32.60
2018-08-17T11:50:19.687Z,32.60
2018-08-17T11:52:53.562Z,34.60
2018-08-17T11:55:22.805Z,34.20
2018-08-17T11:57:51.550Z,33.20
2018-08-17T12:00:19.997Z,32.60
2018-08-17T12:02:48.507Z,33.60
2018-08-17T12:05:16.925Z,32.40
2018-08-17T12:07:46.187Z,33.50
2018-08-17T12:10:14.691Z,34.10
2018-08-17T12:12:44.151Z,32.90
2018-08-17T12:15:13.372Z,33.90
2018-08-17T12:17:41.896Z,34.70
2018-08-17T12:20:10.426Z,34.90
2018-08-17T12:22:39.212Z,32.80
2018-08-17T12:25:08.512Z,34.10
2018-08-17T12:27:37.037Z,34.10
2018-08-17T12:30:06.786Z,32.80
2018-08-17T12:32:35.522Z,33.40
2018-08-17T12:35:04.018Z,34.40
2018-08-17T12:37:32.507Z,34.50
2018-08-17T12:40:01.044Z,33.10
2018-08-17T12:42:29.658Z,32.90
2018-08-17T12:45:02.599Z,34.70
2018-08-17T12:47:31.594Z,35.50
2018-08-17T12:50:00.215Z,34.70
2018-08-17T12:52:28.754Z,33.60
2018-08-17T12:54:57.242Z,35.10
2018-08-17T12:57:30.074Z,35.00
2018-08-17T12:59:58.499Z,34.90
2018-08-17T13:02:27.027Z,33.20
2018-08-17T13:04:55.485Z,31.70
2018-08-17T13:07:23.970Z,33.70
2018-08-17T13:09:54.659Z,34.40
2018-08-17T13:12:23.296Z,34.90
2018-08-17T13:14:52.184Z,35.50
2018-08-17T13:17:20.797Z,34.60
2018-08-17T13:19:49.335Z,34.70
2018-08-17T13:22:17.854Z,36.00
2018-08-17T13:24:46.328Z,37.50
2018-08-17T13:27:14.868Z,38.10
2018-08-17T13:29:43.659Z,33.10
2018-08-17T13:32:12.285Z,32.30
2018-08-17T13:34:40.767Z,31.50
2018-08-17T13:37:09.350Z,31.50
2018-08-17T13:39:37.898Z,31.10
2018-08-17T13:42:06.691Z,32.40
2018-08-17T13:44:36.045Z,32.40
2018-08-17T13:47:04.747Z,30.60
2018-08-17T13:49:33.374Z,31.10
2018-08-17T13:52:01.955Z,32.30
2018-08-17T13:54:30.552Z,32.60
2018-08-17T13:56:59.495Z,32.80
2018-08-17T13:59:28.207Z,33.40
2018-08-17T14:01:56.760Z,33.60
2018-08-17T14:04:25.379Z,34.90
2018-08-17T14:06:54.590Z,35.70
2018-08-17T14:09:23.409Z,37.00
2018-08-17T14:11:52.365Z,37.80
2018-08-17T14:14:21.009Z,38.30
2018-08-17T14:16:49.589Z,36.40
2018-08-17T14:19:18.191Z,35.20
2018-08-17T14:21:46.749Z,33.70
2018-08-17T14:24:15.265Z,32.80
2018-08-17T14:26:43.805Z,31.40
2018-08-17T14:29:12.478Z,30.30
2018-08-17T14:31:41.082Z,30.40
2018-08-17T14:34:09.749Z,30.90
2018-08-17T14:36:38.336Z,31.10
2018-08-17T14:39:07.460Z,31.10
2018-08-17T14:41:45.974Z,31.20
2018-08-17T14:44:14.880Z,31.30
2018-08-17T14:46:43.662Z,31.20
2018-08-17T14:49:12.398Z,30.70
2018-08-17T14:51:40.922Z,30.90
2018-08-17T14:54:09.904Z,30.80
2018-08-17T14:56:38.475Z,30.40
2018-08-17T14:59:07.450Z,30.40
2018-08-17T15:01:36.015Z,30.30
2018-08-17T15:04:04.617Z,30.40
2018-08-17T15:06:33.135Z,30.50
2018-08-17T15:09:01.859Z,30.60
2018-08-17T15:11:30.592Z,30.60
2018-08-17T15:13:59.396Z,30.40
2018-08-17T15:16:28.291Z,30.20
2018-08-17T15:18:56.977Z,30.20
2018-08-17T15:21:25.700Z,30.30
2018-08-17T15:23:54.308Z,30.00
2018-08-17T15:26:23.611Z,29.50
2018-08-17T15:28:52.513Z,29.40
2018-08-17T15:31:21.240Z,29.30
2018-08-17T15:33:50.635Z,29.50
2018-08-17T15:36:19.310Z,29.70
2018-08-17T15:38:48.622Z,29.60
2018-08-17T15:41:17.885Z,29.40
2018-08-17T15:43:47.192Z,29.60
2018-08-17T15:46:16.098Z,29.60
2018-08-17T15:48:49.701Z,29.60
2018-08-17T15:51:18.802Z,29.70
2018-08-17T15:53:47.582Z,29.50
2018-08-17T15:56:16.421Z,29.50
2018-08-17T15:58:45.111Z,29.40
2018-08-17T16:01:14.039Z,29.10
2018-08-17T16:03:42.998Z,29.20
2018-08-17T16:06:11.726Z,29.20
2018-08-17T16:08:40.451Z,29.30
2018-08-17T16:11:09.556Z,29.40
2018-08-17T16:13:38.209Z,29.30
2018-08-17T16:16:06.862Z,29.30
2018-08-17T16:18:35.820Z,29.20
2018-08-17T16:21:04.230Z,29.00
2018-08-17T16:23:32.686Z,29.00
2018-08-17T16:26:01.130Z,29.10
2018-08-17T16:28:29.568Z,29.20
2018-08-17T16:30:58.039Z,29.30
2018-08-17T16:33:26.549Z,29.30
2018-08-17T16:35:55.192Z,29.20
2018-08-17T16:38:23.722Z,29.10
2018-08-17T16:40:53.363Z,29.00
2018-08-17T16:43:26.024Z,28.70
2018-08-17T16:45:54.582Z,28.60
2018-08-17T16:48:23.106Z,28.50
2018-08-17T16:50:51.615Z,28.60
2018-08-17T16:53:20.042Z,28.60
2018-08-17T16:55:48.572Z,28.60
2018-08-17T16:58:16.997Z,28.50
2018-08-17T17:00:45.501Z,28.50
2018-08-17T17:03:13.928Z,28.40
2018-08-17T17:05:42.392Z,28.40
2018-08-17T17:08:10.801Z,28.30
2018-08-17T17:10:39.426Z,28.30
2018-08-17T17:13:07.863Z,28.30
2018-08-17T17:15:36.391Z,28.20
2018-08-17T17:18:08.002Z,28.10
2018-08-17T17:20:37.640Z,28.10
2018-08-17T17:23:08.500Z,28.00
2018-08-17T17:25:37.379Z,28.00
2018-08-17T17:28:06.046Z,27.90
2018-08-17T17:30:44.635Z,27.90
2018-08-17T17:33:13.134Z,27.80
2018-08-17T17:35:42.513Z,27.80
2018-08-17T17:38:11.499Z,27.70
2018-08-17T17:40:40.719Z,27.70
2018-08-17T17:43:09.787Z,27.60
2018-08-17T17:45:39.121Z,27.50
2018-08-17T17:48:07.950Z,27.40
2018-08-17T17:50:36.482Z,27.40
2018-08-17T17:53:05.175Z,27.30
2018-08-17T17:55:56.104Z,27.20
2018-08-17T17:58:24.691Z,27.10
2018-08-17T18:00:59.689Z,27.00
2018-08-17T18:03:31.537Z,26.90
2018-08-17T18:06:02.063Z,26.80
2018-08-17T18:08:30.740Z,26.70
2018-08-17T18:10:59.330Z,26.60
2018-08-17T18:13:27.975Z,26.50
2018-08-17T18:15:56.517Z,26.40
2018-08-17T18:18:25.084Z,26.30
2018-08-17T18:20:53.625Z,26.20
2018-08-17T18:23:22.288Z,26.10
2018-08-17T18:25:50.781Z,25.90
2018-08-17T18:28:19.371Z,25.80
2018-08-17T18:30:48.007Z,25.70
2018-08-17T18:33:16.763Z,25.60
2018-08-17T18:35:45.391Z,25.60
2018-08-17T18:38:13.965Z,25.50
2018-08-17T18:40:42.439Z,25.40
2018-08-17T18:43:10.876Z,25.30
2018-08-17T18:45:40.006Z,25.20
2018-08-17T18:48:08.533Z,25.20
2018-08-17T18:50:36.963Z,25.10
2018-08-17T18:53:05.435Z,25.00
2018-08-17T18:55:33.879Z,24.80
2018-08-17T18:58:02.376Z,24.70
2018-08-17T19:00:30.944Z,24.60
2018-08-17T19:02:59.452Z,24.50
2018-08-17T19:05:28.159Z,24.50
2018-08-17T19:07:56.636Z,24.40
2018-08-17T19:10:25.128Z,24.40
2018-08-17T19:12:53.592Z,24.30
2018-08-17T19:15:22.072Z,24.20
2018-08-17T19:17:50.687Z,24.00
2018-08-17T19:20:19.175Z,23.90
2018-08-17T19:22:47.676Z,23.90
2018-08-17T19:25:16.788Z,23.80
2018-08-17T19:27:45.488Z,23.70
2018-08-17T19:30:22.308Z,23.60
2018-08-17T19:32:51.554Z,23.60
2018-08-17T19:35:19.982Z,23.50
2018-08-17T19:37:49.030Z,23.50
2018-08-17T19:40:17.498Z,23.40
2018-08-17T19:42:46.206Z,23.40
2018-08-17T19:45:14.765Z,23.30
2018-08-17T19:47:43.289Z,23.20
2018-08-17T19:50:11.939Z,23.20
2018-08-17T19:52:40.486Z,23.10
2018-08-17T19:55:09.148Z,23.00
2018-08-17T19:57:37.983Z,22.80
2018-08-17T20:00:09.184Z,22.80
2018-08-17T20:02:37.750Z,22.70
2018-08-17T20:05:06.937Z,22.60
2018-08-17T20:07:35.554Z,22.50
2018-08-17T20:10:04.311Z,22.50
2018-08-17T20:12:32.951Z,22.40
2018-08-17T20:15:02.185Z,22.40
2018-08-17T20:17:31.211Z,22.40
2018-08-17T20:19:59.923Z,22.30
2018-08-17T20:22:28.878Z,22.30
2018-08-17T20:24:57.581Z,22.30
2018-08-17T20:27:26.242Z,22.20
2018-08-17T20:32:59.867Z,22.20
2018-08-17T20:35:28.386Z,22.10
2018-08-17T20:37:56.824Z,22.10
2018-08-17T20:40:25.301Z,22.00
2018-08-17T20:42:54.010Z,21.90
2018-08-17T20:45:25.537Z,21.90
2018-08-17T20:47:54.296Z,21.80
2018-08-17T20:50:22.786Z,21.80
2018-08-17T20:52:58.417Z,21.60
2018-08-17T20:55:27.076Z,21.50
2018-08-17T20:57:56.499Z,21.30
2018-08-17T21:00:26.539Z,21.30
2018-08-17T21:02:55.303Z,21.20
2018-08-17T21:05:23.936Z,21.20
2018-08-17T21:07:54.155Z,21.20
2018-08-17T21:10:22.598Z,21.10
2018-08-17T21:12:51.027Z,21.20
2018-08-17T21:15:19.744Z,21.10
2018-08-17T21:17:48.706Z,21.10
2018-08-17T21:20:17.357Z,21.00
2018-08-17T21:22:45.930Z,20.90
2018-08-17T21:25:14.502Z,20.80
2018-08-17T21:27:43.241Z,20.80
2018-08-17T21:30:12.162Z,20.70
2018-08-17T21:32:41.040Z,20.70
2018-08-17T21:35:09.602Z,20.70
2018-08-17T21:37:38.219Z,20.60
2018-08-17T21:40:14.218Z,20.40
2018-08-17T21:42:42.803Z,20.20
2018-08-17T21:45:11.281Z,20.10
2018-08-17T21:47:39.772Z,20.20
2018-08-17T21:50:13.448Z,20.20
2018-08-17T21:52:42.597Z,20.20
2018-08-17T21:55:11.088Z,20.20
2018-08-17T21:57:41.058Z,20.10
2018-08-17T22:00:13.165Z,20.10
2018-08-17T22:02:41.631Z,20.00
2018-08-17T22:05:14.363Z,20.10
2018-08-17T22:07:42.808Z,19.90
2018-08-17T22:10:11.241Z,19.80
2018-08-17T22:12:39.661Z,19.80
2018-08-17T22:15:08.136Z,19.70
2018-08-17T22:17:39.502Z,19.70
2018-08-17T22:20:09.961Z,19.70
2018-08-17T22:22:38.379Z,19.70
2018-08-17T22:25:13.684Z,19.70
2018-08-17T22:27:42.195Z,19.70
2018-08-17T22:30:17.300Z,19.70
2018-08-17T22:32:45.687Z,19.60
2018-08-17T22:35:14.230Z,19.60
2018-08-17T22:37:43.865Z,19.70
2018-08-17T22:40:12.343Z,19.70
2018-08-17T22:42:40.842Z,19.70
2018-08-17T22:45:09.313Z,19.70
2018-08-17T22:47:37.728Z,19.70
2018-08-17T22:50:06.713Z,19.70
2018-08-17T22:52:35.553Z,19.70
2018-08-17T22:55:08.481Z,19.70
2018-08-17T22:57:36.969Z,19.60
2018-08-17T23:00:19.223Z,19.60
2018-08-17T23:02:49.025Z,19.60
2018-08-17T23:05:21.037Z,19.50
2018-08-17T23:07:49.607Z,19.40
2018-08-17T23:10:19.324Z,19.40
2018-08-17T23:12:48.902Z,19.40
2018-08-17T23:15:17.482Z,19.40
2018-08-17T23:17:53.053Z,19.40
2018-08-17T23:20:26.853Z,19.30
2018-08-17T23:22:56.578Z,19.30
2018-08-17T23:25:25.032Z,19.20
2018-08-17T23:27:53.809Z,19.20
2018-08-17T23:30:22.363Z,19.20
2018-08-17T23:32:50.889Z,19.20
2018-08-17T23:35:19.387Z,19.10
2018-08-17T23:37:47.876Z,19.00
2018-08-17T23:40:16.357Z,18.90
2018-08-17T23:42:44.883Z,18.90
2018-08-17T23:45:16.013Z,18.90
2018-08-17T23:47:44.486Z,18.80
2018-08-17T23:50:14.032Z,18.80
2018-08-17T23:52:43.145Z,18.80
2018-08-17T23:55:13.285Z,18.70
2018-08-17T23:57:41.859Z,18.70
